Terminal Aerodrome Forecast
Issued by NWS Grand Forks, ND

Home | Current Version | Previous Version | Graphics & Text | Print | Product List | Glossary On
Versions: 1 2 3 4 5 6 7 8 9 10 11 12 13 14 15 16 17
000
FTUS43 KFGF 231120
TAFFAR
TAF
KFAR 231120Z 2312/2412 36012KT P6SM VCSH OVC008
     FM231500 36014G22KT P6SM OVC015
     FM231800 01015G22KT P6SM OVC025
     FM232200 01012KT P6SM BKN035
     FM240200 02006KT P6SM SCT100=

USA.gov is the U.S. government's official web portal to all federal, state and local government web resources and services.